sensor_id;sensor_type;location;lat;lon;timestamp;pressure;altitude;pressure_sealevel;temperature;humidity
73151;BME280;61354;50.758;6.106;2023-10-08T00:01:15;99896.72;;;16.44;97.05
73151;BME280;61354;50.758;6.106;2023-10-08T00:03:43;99896.28;;;16.42;97.23
73151;BME280;61354;50.758;6.106;2023-10-08T00:06:20;99907.50;;;16.42;96.63
73151;BME280;61354;50.758;6.106;2023-10-08T00:08:50;99911.06;;;16.39;96.78
73151;BME280;61354;50.758;6.106;2023-10-08T00:11:16;99898.66;;;16.40;96.63
73151;BME280;61354;50.758;6.106;2023-10-08T00:13:42;99908.25;;;16.39;96.83
73151;BME280;61354;50.758;6.106;2023-10-08T00:16:13;99920.22;;;16.36;97.82
73151;BME280;61354;50.758;6.106;2023-10-08T00:18:43;99912.47;;;16.26;98.64
73151;BME280;61354;50.758;6.106;2023-10-08T00:21:21;99923.25;;;16.24;97.68
73151;BME280;61354;50.758;6.106;2023-10-08T00:23:53;99933.78;;;16.30;97.28
73151;BME280;61354;50.758;6.106;2023-10-08T00:26:25;99918.31;;;16.17;98.33
73151;BME280;61354;50.758;6.106;2023-10-08T00:31:25;99923.34;;;16.31;97.23
73151;BME280;61354;50.758;6.106;2023-10-08T00:33:57;99912.47;;;16.26;97.45
73151;BME280;61354;50.758;6.106;2023-10-08T00:36:22;99903.22;;;16.22;97.32
73151;BME280;61354;50.758;6.106;2023-10-08T00:38:50;99901.56;;;16.21;96.43
73151;BME280;61354;50.758;6.106;2023-10-08T00:41:19;99898.34;;;16.19;97.05
73151;BME280;61354;50.758;6.106;2023-10-08T00:43:48;99906.31;;;16.16;96.24
73151;BME280;61354;50.758;6.106;2023-10-08T00:46:15;99918.59;;;16.08;96.68
73151;BME280;61354;50.758;6.106;2023-10-08T00:48:54;99915.78;;;16.08;97.10
73151;BME280;61354;50.758;6.106;2023-10-08T00:51:25;99917.44;;;16.09;97.21
73151;BME280;61354;50.758;6.106;2023-10-08T00:54:06;99919.03;;;16.10;96.58
73151;BME280;61354;50.758;6.106;2023-10-08T00:56:34;99917.47;;;16.13;95.74
73151;BME280;61354;50.758;6.106;2023-10-08T00:59:16;99918.50;;;16.01;96.63
73151;BME280;61354;50.758;6.106;2023-10-08T01:01:43;99908.16;;;16.05;97.02
73151;BME280;61354;50.758;6.106;2023-10-08T01:04:16;99903.38;;;16.06;97.11
73151;BME280;61354;50.758;6.106;2023-10-08T01:06:42;99900.06;;;16.00;96.45
73151;BME280;61354;50.758;6.106;2023-10-08T01:09:07;99894.16;;;16.05;94.73
73151;BME280;61354;50.758;6.106;2023-10-08T01:14:42;99891.66;;;16.00;94.50
73151;BME280;61354;50.758;6.106;2023-10-08T01:17:11;99898.03;;;15.97;93.79
73151;BME280;61354;50.758;6.106;2023-10-08T01:19:46;99904.69;;;15.89;94.49
73151;BME280;61354;50.758;6.106;2023-10-08T01:22:16;99901.03;;;15.85;94.57
73151;BME280;61354;50.758;6.106;2023-10-08T01:24:50;99901.03;;;15.85;93.37
73151;BME280;61354;50.758;6.106;2023-10-08T01:27:17;99894.78;;;15.95;92.46
73151;BME280;61354;50.758;6.106;2023-10-08T01:29:48;99906.63;;;15.85;92.64
73151;BME280;61354;50.758;6.106;2023-10-08T01:32:18;99918.25;;;15.87;92.69
73151;BME280;61354;50.758;6.106;2023-10-08T01:34:44;99924.25;;;15.85;92.54
73151;BME280;61354;50.758;6.106;2023-10-08T01:37:17;99924.19;;;15.82;93.32
73151;BME280;61354;50.758;6.106;2023-10-08T01:39:47;99911.66;;;15.76;93.45
73151;BME280;61354;50.758;6.106;2023-10-08T01:42:16;99913.84;;;15.86;93.45
73151;BME280;61354;50.758;6.106;2023-10-08T01:44:49;99908.13;;;15.79;93.96
73151;BME280;61354;50.758;6.106;2023-10-08T01:47:20;99903.69;;;15.78;94.42
73151;BME280;61354;50.758;6.106;2023-10-08T01:49:46;99901.72;;;15.78;94.40
73151;BME280;61354;50.758;6.106;2023-10-08T01:52:14;99905.50;;;15.66;95.45
73151;BME280;61354;50.758;6.106;2023-10-08T01:54:47;99892.75;;;15.69;95.73
73151;BME280;61354;50.758;6.106;2023-10-08T01:57:14;99895.97;;;15.71;95.52
73151;BME280;61354;50.758;6.106;2023-10-08T01:59:40;99904.59;;;15.62;96.27
73151;BME280;61354;50.758;6.106;2023-10-08T02:02:06;99907.97;;;15.72;95.59
73151;BME280;61354;50.758;6.106;2023-10-08T02:04:35;99929.78;;;15.62;96.32
73151;BME280;61354;50.758;6.106;2023-10-08T02:07:04;99933.38;;;15.59;96.10
73151;BME280;61354;50.758;6.106;2023-10-08T02:09:34;99911.38;;;15.61;96.51
73151;BME280;61354;50.758;6.106;2023-10-08T02:11:59;99913.31;;;15.57;96.58
73151;BME280;61354;50.758;6.106;2023-10-08T02:14:25;99906.78;;;15.50;97.24
73151;BME280;61354;50.758;6.106;2023-10-08T02:16:51;99900.81;;;15.51;97.52
73151;BME280;61354;50.758;6.106;2023-10-08T02:19:24;99896.75;;;15.49;97.28
73151;BME280;61354;50.758;6.106;2023-10-08T02:21:54;99893.50;;;15.47;97.65
73151;BME280;61354;50.758;6.106;2023-10-08T02:24:21;99886.06;;;15.54;96.72
73151;BME280;61354;50.758;6.106;2023-10-08T02:26:47;99885.63;;;15.52;96.48
73151;BME280;61354;50.758;6.106;2023-10-08T02:29:13;99883.16;;;15.47;97.25
73151;BME280;61354;50.758;6.106;2023-10-08T02:31:40;99877.09;;;15.45;96.60
73151;BME280;61354;50.758;6.106;2023-10-08T02:34:06;99881.09;;;15.44;96.86
73151;BME280;61354;50.758;6.106;2023-10-08T02:36:36;99890.78;;;15.50;95.86
73151;BME280;61354;50.758;6.106;2023-10-08T02:39:03;99887.31;;;15.57;94.90
73151;BME280;61354;50.758;6.106;2023-10-08T02:41:32;99891.31;;;15.56;94.48
73151;BME280;61354;50.758;6.106;2023-10-08T02:43:57;99891.22;;;15.52;95.13
73151;BME280;61354;50.758;6.106;2023-10-08T02:46:24;99884.22;;;15.39;95.84
73151;BME280;61354;50.758;6.106;2023-10-08T02:48:52;99897.00;;;15.40;95.76
73151;BME280;61354;50.758;6.106;2023-10-08T02:51:18;99900.22;;;15.42;96.15
73151;BME280;61354;50.758;6.106;2023-10-08T02:53:46;99901.88;;;15.43;95.87
73151;BME280;61354;50.758;6.106;2023-10-08T02:56:12;99921.09;;;15.45;95.98
73151;BME280;61354;50.758;6.106;2023-10-08T02:58:40;99925.00;;;15.40;96.20
73151;BME280;61354;50.758;6.106;2023-10-08T03:01:07;99911.00;;;15.40;96.09
73151;BME280;61354;50.758;6.106;2023-10-08T03:03:41;99913.72;;;15.36;95.96
73151;BME280;61354;50.758;6.106;2023-10-08T03:06:12;99906.59;;;15.39;95.92
73151;BME280;61354;50.758;6.106;2023-10-08T03:08:40;99908.94;;;15.37;96.17
73151;BME280;61354;50.758;6.106;2023-10-08T03:11:10;99916.09;;;15.34;96.56
73151;BME280;61354;50.758;6.106;2023-10-08T03:13:45;99909.69;;;15.34;96.42
73151;BME280;61354;50.758;6.106;2023-10-08T03:16:18;99910.06;;;15.32;96.97
73151;BME280;61354;50.758;6.106;2023-10-08T03:18:52;99914.41;;;15.30;96.34
73151;BME280;61354;50.758;6.106;2023-10-08T03:21:20;99903.34;;;15.37;95.98
73151;BME280;61354;50.758;6.106;2023-10-08T03:23:48;99894.94;;;15.37;96.45
73151;BME280;61354;50.758;6.106;2023-10-08T03:26:17;99889.75;;;15.35;95.80
73151;BME280;61354;50.758;6.106;2023-10-08T03:28:59;99896.88;;;15.33;96.00
73151;BME280;61354;50.758;6.106;2023-10-08T03:31:25;99897.69;;;15.33;96.23
73151;BME280;61354;50.758;6.106;2023-10-08T03:34:10;99912.78;;;15.29;96.03
73151;BME280;61354;50.758;6.106;2023-10-08T03:36:44;99920.81;;;15.30;96.10
73151;BME280;61354;50.758;6.106;2023-10-08T03:39:11;99927.22;;;15.31;96.33
73151;BME280;61354;50.758;6.106;2023-10-08T03:41:41;99928.84;;;15.32;96.28
73151;BME280;61354;50.758;6.106;2023-10-08T03:44:07;99932.06;;;15.34;96.83
73151;BME280;61354;50.758;6.106;2023-10-08T03:46:40;99927.66;;;15.33;96.94
73151;BME280;61354;50.758;6.106;2023-10-08T03:49:10;99935.09;;;15.25;97.78
73151;BME280;61354;50.758;6.106;2023-10-08T03:51:48;99934.44;;;15.32;98.23
73151;BME280;61354;50.758;6.106;2023-10-08T03:54:18;99935.91;;;15.26;99.10
73151;BME280;61354;50.758;6.106;2023-10-08T03:57:09;99934.97;;;15.18;98.90
73151;BME280;61354;50.758;6.106;2023-10-08T03:59:43;99919.56;;;15.28;98.39
73151;BME280;61354;50.758;6.106;2023-10-08T04:02:09;99934.97;;;15.18;99.40
73151;BME280;61354;50.758;6.106;2023-10-08T04:04:48;99926.59;;;15.18;98.94
73151;BME280;61354;50.758;6.106;2023-10-08T04:07:21;99936.22;;;15.21;99.03
73151;BME280;61354;50.758;6.106;2023-10-08T04:09:50;99922.94;;;15.17;99.33
73151;BME280;61354;50.758;6.106;2023-10-08T04:12:30;99925.75;;;15.17;98.95
73151;BME280;61354;50.758;6.106;2023-10-08T04:15:03;99927.81;;;15.21;98.46
73151;BME280;61354;50.758;6.106;2023-10-08T04:17:36;99922.94;;;15.17;98.53
73151;BME280;61354;50.758;6.106;2023-10-08T04:20:13;99916.63;;;15.21;98.89
73151;BME280;61354;50.758;6.106;2023-10-08T04:23:02;99916.63;;;15.21;98.66
73151;BME280;61354;50.758;6.106;2023-10-08T04:25:30;99918.47;;;15.13;99.05
73151;BME280;61354;50.758;6.106;2023-10-08T04:28:00;99912.22;;;15.20;98.58
73151;BME280;61354;50.758;6.106;2023-10-08T04:30:32;99918.94;;;15.15;98.63
73151;BME280;61354;50.758;6.106;2023-10-08T04:33:05;99923.56;;;15.07;98.89
73151;BME280;61354;50.758;6.106;2023-10-08T04:35:38;99927.41;;;14.99;99.76
73151;BME280;61354;50.758;6.106;2023-10-08T04:38:26;99923.41;;;15.00;99.44
73151;BME280;61354;50.758;6.106;2023-10-08T04:40:54;99940.94;;;14.97;98.85
73151;BME280;61354;50.758;6.106;2023-10-08T04:43:21;99940.28;;;15.04;100.00
73151;BME280;61354;50.758;6.106;2023-10-08T04:45:56;99948.22;;;15.02;99.54
73151;BME280;61354;50.758;6.106;2023-10-08T04:48:23;99946.75;;;15.08;99.33
73151;BME280;61354;50.758;6.106;2023-10-08T04:50:49;99946.66;;;15.04;99.93
73151;BME280;61354;50.758;6.106;2023-10-08T04:53:34;99949.47;;;14.85;100.00
73151;BME280;61354;50.758;6.106;2023-10-08T04:56:11;99951.44;;;14.84;100.00
73151;BME280;61354;50.758;6.106;2023-10-08T04:58:45;99958.31;;;14.87;100.00
73151;BME280;61354;50.758;6.106;2023-10-08T05:01:15;99959.19;;;14.91;100.00
73151;BME280;61354;50.758;6.106;2023-10-08T05:03:45;99962.28;;;14.86;100.00
73151;BME280;61354;50.758;6.106;2023-10-08T05:06:32;99952.72;;;14.87;100.00
73151;BME280;61354;50.758;6.106;2023-10-08T05:09:05;99945.50;;;14.86;100.00
73151;BME280;61354;50.758;6.106;2023-10-08T05:11:37;99942.25;;;14.84;100.00
73151;BME280;61354;50.758;6.106;2023-10-08T05:14:23;99938.28;;;14.85;100.00
73151;BME280;61354;50.758;6.106;2023-10-08T05:16:59;99935.84;;;14.83;100.00
73151;BME280;61354;50.758;6.106;2023-10-08T05:19:48;99936.81;;;14.91;99.41
73151;BME280;61354;50.758;6.106;2023-10-08T05:22:22;99935.13;;;14.86;99.03
73151;BME280;61354;50.758;6.106;2023-10-08T05:24:49;99938.00;;;14.90;99.69
73151;BME280;61354;50.758;6.106;2023-10-08T05:27:37;99941.22;;;14.92;99.35
73151;BME280;61354;50.758;6.106;2023-10-08T05:30:24;99952.06;;;14.94;98.88
73151;BME280;61354;50.758;6.106;2023-10-08T05:32:53;99953.44;;;14.84;100.00
73151;BME280;61354;50.758;6.106;2023-10-08T05:35:40;99956.59;;;14.82;100.00
73151;BME280;61354;50.758;6.106;2023-10-08T05:38:09;99959.78;;;14.81;100.00
73151;BME280;61354;50.758;6.106;2023-10-08T05:40:43;99966.53;;;14.80;100.00
73151;BME280;61354;50.758;6.106;2023-10-08T05:43:34;99972.56;;;14.82;100.00
73151;BME280;61354;50.758;6.106;2023-10-08T05:46:11;99971.59;;;14.74;100.00
73151;BME280;61354;50.758;6.106;2023-10-08T05:48:52;99963.84;;;14.67;100.00
73151;BME280;61354;50.758;6.106;2023-10-08T05:51:28;99957.13;;;14.69;100.00
73151;BME280;61354;50.758;6.106;2023-10-08T05:54:13;99952.53;;;14.60;100.00
73151;BME280;61354;50.758;6.106;2023-10-08T05:57:09;99967.66;;;14.59;100.00
73151;BME280;61354;50.758;6.106;2023-10-08T06:02:32;99958.34;;;14.52;100.00
73151;BME280;61354;50.758;6.106;2023-10-08T06:07:55;99962.09;;;14.43;100.00
73151;BME280;61354;50.758;6.106;2023-10-08T06:10:22;99967.06;;;14.50;100.00
73151;BME280;61354;50.758;6.106;2023-10-08T06:12:57;99959.88;;;14.49;100.00
73151;BME280;61354;50.758;6.106;2023-10-08T06:15:28;99963.09;;;14.51;100.00
73151;BME280;61354;50.758;6.106;2023-10-08T06:18:10;99969.50;;;14.52;100.00
73151;BME280;61354;50.758;6.106;2023-10-08T06:20:36;99975.00;;;14.48;100.00
73151;BME280;61354;50.758;6.106;2023-10-08T06:23:05;99969.50;;;14.52;100.00
73151;BME280;61354;50.758;6.106;2023-10-08T06:25:33;99976.13;;;14.47;100.00
73151;BME280;61354;50.758;6.106;2023-10-08T06:28:14;99982.91;;;14.46;100.00
73151;BME280;61354;50.758;6.106;2023-10-08T06:30:41;99991.03;;;14.51;100.00
73151;BME280;61354;50.758;6.106;2023-10-08T06:33:07;100001.28;;;14.47;100.00
73151;BME280;61354;50.758;6.106;2023-10-08T06:35:33;100001.78;;;14.49;100.00
73151;BME280;61354;50.758;6.106;2023-10-08T06:37:59;100004.47;;;14.46;100.00
73151;BME280;61354;50.758;6.106;2023-10-08T06:40:26;100012.69;;;14.54;100.00
73151;BME280;61354;50.758;6.106;2023-10-08T06:43:18;100013.94;;;14.57;100.00
73151;BME280;61354;50.758;6.106;2023-10-08T06:45:50;100020.72;;;14.56;100.00
73151;BME280;61354;50.758;6.106;2023-10-08T06:48:20;100024.47;;;14.48;100.00
73151;BME280;61354;50.758;6.106;2023-10-08T06:50:49;100028.00;;;14.45;100.00
73151;BME280;61354;50.758;6.106;2023-10-08T06:53:16;100028.81;;;14.45;100.00
73151;BME280;61354;50.758;6.106;2023-10-08T06:55:46;100023.75;;;14.51;100.00
73151;BME280;61354;50.758;6.106;2023-10-08T06:58:14;100031.00;;;14.52;100.00
73151;BME280;61354;50.758;6.106;2023-10-08T07:00:40;100035.56;;;14.44;100.00
73151;BME280;61354;50.758;6.106;2023-10-08T07:03:13;100047.81;;;14.55;100.00
73151;BME280;61354;50.758;6.106;2023-10-08T07:05:45;100049.63;;;14.63;100.00
73151;BME280;61354;50.758;6.106;2023-10-08T07:08:24;100053.06;;;14.73;100.00
73151;BME280;61354;50.758;6.106;2023-10-08T07:10:50;100050.69;;;14.75;100.00
73151;BME280;61354;50.758;6.106;2023-10-08T07:13:17;100039.50;;;14.75;100.00
73151;BME280;61354;50.758;6.106;2023-10-08T07:15:50;100042.00;;;14.80;100.00
73151;BME280;61354;50.758;6.106;2023-10-08T07:18:17;100025.69;;;14.82;100.00
73151;BME280;61354;50.758;6.106;2023-10-08T07:20:55;100023.00;;;14.85;100.00
73151;BME280;61354;50.758;6.106;2023-10-08T07:23:27;100026.22;;;14.87;100.00
73151;BME280;61354;50.758;6.106;2023-10-08T07:26:01;100025.88;;;14.89;100.00
73151;BME280;61354;50.758;6.106;2023-10-08T07:28:40;100031.16;;;14.94;100.00
73151;BME280;61354;50.758;6.106;2023-10-08T07:31:16;100028.81;;;14.96;100.00
73151;BME280;61354;50.758;6.106;2023-10-08T07:33:48;100027.19;;;14.95;100.00
73151;BME280;61354;50.758;6.106;2023-10-08T07:36:19;100027.19;;;14.95;100.00
73151;BME280;61354;50.758;6.106;2023-10-08T07:38:45;100032.06;;;14.98;100.00
73151;BME280;61354;50.758;6.106;2023-10-08T07:41:13;100019.41;;;15.04;100.00
73151;BME280;61354;50.758;6.106;2023-10-08T07:43:40;100018.59;;;15.04;100.00
73151;BME280;61354;50.758;6.106;2023-10-08T07:46:08;100012.28;;;15.07;100.00
73151;BME280;61354;50.758;6.106;2023-10-08T07:48:34;100006.69;;;15.07;100.00
73151;BME280;61354;50.758;6.106;2023-10-08T07:51:00;100005.13;;;15.09;100.00
73151;BME280;61354;50.758;6.106;2023-10-08T07:53:27;100003.66;;;15.15;100.00
73151;BME280;61354;50.758;6.106;2023-10-08T07:56:04;100003.66;;;15.15;100.00
73151;BME280;61354;50.758;6.106;2023-10-08T07:58:35;100000.56;;;15.21;100.00
73151;BME280;61354;50.758;6.106;2023-10-08T08:01:08;99998.94;;;15.20;100.00
73151;BME280;61354;50.758;6.106;2023-10-08T08:03:35;100008.31;;;15.27;100.00
73151;BME280;61354;50.758;6.106;2023-10-08T08:06:09;99997.53;;;15.29;100.00
73151;BME280;61354;50.758;6.106;2023-10-08T08:08:35;100003.22;;;15.33;100.00
73151;BME280;61354;50.758;6.106;2023-10-08T08:11:05;100002.47;;;15.36;100.00
73151;BME280;61354;50.758;6.106;2023-10-08T08:13:38;100002.63;;;15.43;100.00
73151;BME280;61354;50.758;6.106;2023-10-08T08:16:04;99990.59;;;15.42;100.00
73151;BME280;61354;50.758;6.106;2023-10-08T08:19:00;100009.09;;;15.47;100.00
73151;BME280;61354;50.758;6.106;2023-10-08T08:21:26;100007.53;;;15.50;100.00
73151;BME280;61354;50.758;6.106;2023-10-08T08:23:51;99998.84;;;15.55;100.00
73151;BME280;61354;50.758;6.106;2023-10-08T08:26:24;100002.16;;;15.60;100.00
73151;BME280;61354;50.758;6.106;2023-10-08T08:29:02;100004.97;;;15.60;100.00
73151;BME280;61354;50.758;6.106;2023-10-08T08:31:29;99999.88;;;15.66;100.00
73151;BME280;61354;50.758;6.106;2023-10-08T08:34:01;99987.16;;;15.69;100.00
73151;BME280;61354;50.758;6.106;2023-10-08T08:36:35;99984.03;;;15.74;100.00
73151;BME280;61354;50.758;6.106;2023-10-08T08:39:05;99985.78;;;15.82;100.00
73151;BME280;61354;50.758;6.106;2023-10-08T08:41:37;99980.25;;;15.85;100.00
73151;BME280;61354;50.758;6.106;2023-10-08T08:44:03;99984.34;;;15.91;100.00
73151;BME280;61354;50.758;6.106;2023-10-08T08:46:36;99979.69;;;15.99;100.00
73151;BME280;61354;50.758;6.106;2023-10-08T08:49:06;99981.00;;;16.05;100.00
73151;BME280;61354;50.758;6.106;2023-10-08T08:51:37;99991.88;;;16.10;100.00
73151;BME280;61354;50.758;6.106;2023-10-08T08:54:04;99990.44;;;16.20;100.00
73151;BME280;61354;50.758;6.106;2023-10-08T08:56:34;99992.88;;;16.22;100.00
73151;BME280;61354;50.758;6.106;2023-10-08T08:59:00;99988.63;;;16.31;100.00
73151;BME280;61354;50.758;6.106;2023-10-08T09:01:27;99990.72;;;16.38;100.00
73151;BME280;61354;50.758;6.106;2023-10-08T09:03:58;99995.63;;;16.45;100.00
73151;BME280;61354;50.758;6.106;2023-10-08T09:06:26;100001.03;;;16.57;100.00
73151;BME280;61354;50.758;6.106;2023-10-08T09:08:53;99996.69;;;16.59;100.00
73151;BME280;61354;50.758;6.106;2023-10-08T09:11:21;99999.25;;;16.72;100.00
73151;BME280;61354;50.758;6.106;2023-10-08T09:13:47;100004.53;;;16.73;100.00
73151;BME280;61354;50.758;6.106;2023-10-08T09:16:13;100012.19;;;16.76;100.00
73151;BME280;61354;50.758;6.106;2023-10-08T09:18:58;100020.72;;;16.87;100.00
73151;BME280;61354;50.758;6.106;2023-10-08T09:21:23;100026.78;;;16.89;100.00
73151;BME280;61354;50.758;6.106;2023-10-08T09:23:50;100015.56;;;16.89;100.00
73151;BME280;61354;50.758;6.106;2023-10-08T09:26:17;100033.25;;;16.93;100.00
73151;BME280;61354;50.758;6.106;2023-10-08T09:28:47;100028.94;;;16.99;100.00
73151;BME280;61354;50.758;6.106;2023-10-08T09:31:14;100029.44;;;17.08;100.00
73151;BME280;61354;50.758;6.106;2023-10-08T09:33:40;100034.41;;;17.19;100.00
73151;BME280;61354;50.758;6.106;2023-10-08T09:36:08;100036.78;;;17.17;100.00
73151;BME280;61354;50.758;6.106;2023-10-08T09:38:37;100047.69;;;17.22;100.00
73151;BME280;61354;50.758;6.106;2023-10-08T09:41:03;100049.63;;;17.18;100.00
73151;BME280;61354;50.758;6.106;2023-10-08T09:43:29;100057.81;;;17.30;100.00
73151;BME280;61354;50.758;6.106;2023-10-08T09:46:19;100055.09;;;17.37;100.00
73151;BME280;61354;50.758;6.106;2023-10-08T09:48:52;100057.19;;;17.44;100.00
73151;BME280;61354;50.758;6.106;2023-10-08T09:51:19;100062.81;;;17.44;100.00
73151;BME280;61354;50.758;6.106;2023-10-08T09:53:57;100062.94;;;17.54;100.00
73151;BME280;61354;50.758;6.106;2023-10-08T09:56:28;100066.25;;;17.63;98.67
73151;BME280;61354;50.758;6.106;2023-10-08T09:58:54;100064.22;;;17.60;99.14
73151;BME280;61354;50.758;6.106;2023-10-08T10:01:20;100072.13;;;17.81;100.00
73151;BME280;61354;50.758;6.106;2023-10-08T10:03:48;100067.03;;;17.94;99.70
73151;BME280;61354;50.758;6.106;2023-10-08T10:06:16;100080.31;;;17.97;99.76
73151;BME280;61354;50.758;6.106;2023-10-08T10:08:43;100068.31;;;18.04;98.51
73151;BME280;61354;50.758;6.106;2023-10-08T10:11:09;100069.56;;;18.06;97.50
73151;BME280;61354;50.758;6.106;2023-10-08T10:13:43;100074.06;;;18.14;97.67
73151;BME280;61354;50.758;6.106;2023-10-08T10:16:21;100078.16;;;18.24;97.92
73151;BME280;61354;50.758;6.106;2023-10-08T10:18:50;100073.25;;;18.14;96.44
73151;BME280;61354;50.758;6.106;2023-10-08T10:23:42;100071.41;;;18.29;96.82
73151;BME280;61354;50.758;6.106;2023-10-08T10:26:34;100079.78;;;18.22;95.13
73151;BME280;61354;50.758;6.106;2023-10-08T10:31:42;100072.66;;;18.35;94.93
73151;BME280;61354;50.758;6.106;2023-10-08T10:34:20;100068.31;;;18.45;95.57
73151;BME280;61354;50.758;6.106;2023-10-08T10:36:48;100068.69;;;18.39;94.38
73151;BME280;61354;50.758;6.106;2023-10-08T10:39:17;100063.13;;;18.47;96.08
73151;BME280;61354;50.758;6.106;2023-10-08T10:41:52;100061.59;;;18.56;95.89
73151;BME280;61354;50.758;6.106;2023-10-08T10:44:24;100062.50;;;18.68;96.32
73151;BME280;61354;50.758;6.106;2023-10-08T10:46:50;100065.72;;;18.70;95.30
73151;BME280;61354;50.758;6.106;2023-10-08T10:49:49;100064.09;;;18.69;93.90
73151;BME280;61354;50.758;6.106;2023-10-08T10:52:26;100073.84;;;18.78;94.69
73151;BME280;61354;50.758;6.106;2023-10-08T10:55:05;100069.00;;;18.75;92.69
73151;BME280;61354;50.758;6.106;2023-10-08T10:57:53;100061.00;;;18.81;92.15
73151;BME280;61354;50.758;6.106;2023-10-08T11:00:30;100064.69;;;18.88;93.67
73151;BME280;61354;50.758;6.106;2023-10-08T11:03:00;100057.13;;;19.00;93.30
73151;BME280;61354;50.758;6.106;2023-10-08T11:05:30;100056.28;;;18.99;92.71
73151;BME280;61354;50.758;6.106;2023-10-08T11:07:57;100047.50;;;19.04;93.02
73151;BME280;61354;50.758;6.106;2023-10-08T11:10:31;100051.53;;;19.10;91.72
73151;BME280;61354;50.758;6.106;2023-10-08T11:12:58;100044.34;;;19.17;94.29
73151;BME280;61354;50.758;6.106;2023-10-08T11:15:29;100040.38;;;19.25;93.09
73151;BME280;61354;50.758;6.106;2023-10-08T11:18:13;100033.97;;;19.38;92.80
73151;BME280;61354;50.758;6.106;2023-10-08T11:20:42;100036.06;;;19.59;92.85
73151;BME280;61354;50.758;6.106;2023-10-08T11:23:10;100040.94;;;19.70;89.65
73151;BME280;61354;50.758;6.106;2023-10-08T11:25:56;100056.69;;;19.78;88.94
73151;BME280;61354;50.758;6.106;2023-10-08T11:28:31;100051.03;;;19.78;89.36
73151;BME280;61354;50.758;6.106;2023-10-08T11:31:00;100051.13;;;19.99;88.58
73151;BME280;61354;50.758;6.106;2023-10-08T11:33:40;100044.59;;;19.77;85.18
73151;BME280;61354;50.758;6.106;2023-10-08T11:36:07;100029.72;;;19.84;87.62
73151;BME280;61354;50.758;6.106;2023-10-08T11:38:46;100036.19;;;19.92;87.69
73151;BME280;61354;50.758;6.106;2023-10-08T11:41:17;100018.88;;;19.93;87.24
73151;BME280;61354;50.758;6.106;2023-10-08T11:43:50;100016.88;;;20.01;89.27
73151;BME280;61354;50.758;6.106;2023-10-08T11:48:52;100010.84;;;20.06;88.67
73151;BME280;61354;50.758;6.106;2023-10-08T11:51:17;100014.06;;;20.04;86.40
73151;BME280;61354;50.758;6.106;2023-10-08T11:53:46;100018.91;;;20.07;87.40
73151;BME280;61354;50.758;6.106;2023-10-08T11:56:12;100023.34;;;20.08;89.17
73151;BME280;61354;50.758;6.106;2023-10-08T11:58:40;100018.50;;;20.13;88.28
73151;BME280;61354;50.758;6.106;2023-10-08T12:01:12;100020.91;;;20.18;88.63
73151;BME280;61354;50.758;6.106;2023-10-08T12:03:47;100011.66;;;20.28;89.43
73151;BME280;61354;50.758;6.106;2023-10-08T12:06:16;100010.88;;;20.24;86.23
73151;BME280;61354;50.758;6.106;2023-10-08T12:08:47;100014.06;;;20.08;86.34
73151;BME280;61354;50.758;6.106;2023-10-08T12:11:19;100003.19;;;20.17;85.62
73151;BME280;61354;50.758;6.106;2023-10-08T12:13:45;100004.41;;;20.27;87.37
73151;BME280;61354;50.758;6.106;2023-10-08T12:16:12;99998.78;;;20.34;85.68
73151;BME280;61354;50.758;6.106;2023-10-08T12:18:56;100000.00;;;20.36;82.84
73151;BME280;61354;50.758;6.106;2023-10-08T12:21:26;99993.50;;;20.36;82.73
73151;BME280;61354;50.758;6.106;2023-10-08T12:23:55;99996.38;;;20.54;84.95
73151;BME280;61354;50.758;6.106;2023-10-08T12:26:22;99983.44;;;20.56;82.74
73151;BME280;61354;50.758;6.106;2023-10-08T12:28:48;99985.88;;;20.62;83.24
73151;BME280;61354;50.758;6.106;2023-10-08T12:31:18;99980.22;;;20.65;82.95
73151;BME280;61354;50.758;6.106;2023-10-08T12:33:48;99982.22;;;20.72;83.74
73151;BME280;61354;50.758;6.106;2023-10-08T12:36:14;99980.22;;;20.69;82.26
73151;BME280;61354;50.758;6.106;2023-10-08T12:38:43;99981.00;;;20.69;83.34
73151;BME280;61354;50.758;6.106;2023-10-08T12:41:12;99979.41;;;20.72;82.81
73151;BME280;61354;50.758;6.106;2023-10-08T12:43:39;99977.81;;;20.60;82.50
73151;BME280;61354;50.758;6.106;2023-10-08T12:46:05;99979.84;;;20.56;83.35
73151;BME280;61354;50.758;6.106;2023-10-08T12:48:36;99984.66;;;20.63;82.41
73151;BME280;61354;50.758;6.106;2023-10-08T12:51:02;99984.66;;;20.63;83.57
73151;BME280;61354;50.758;6.106;2023-10-08T12:53:31;99983.84;;;20.73;84.35
73151;BME280;61354;50.758;6.106;2023-10-08T12:56:00;99984.66;;;20.70;84.98
73151;BME280;61354;50.758;6.106;2023-10-08T12:58:32;99987.50;;;20.66;82.89
73151;BME280;61354;50.758;6.106;2023-10-08T13:01:07;99987.47;;;20.73;85.10
73151;BME280;61354;50.758;6.106;2023-10-08T13:03:38;99981.44;;;20.75;84.96
73151;BME280;61354;50.758;6.106;2023-10-08T13:06:08;99977.38;;;20.83;82.12
73151;BME280;61354;50.758;6.106;2023-10-08T13:08:37;99973.75;;;20.86;85.29
73151;BME280;61354;50.758;6.106;2023-10-08T13:11:02;99976.94;;;20.92;86.15
73151;BME280;61354;50.758;6.106;2023-10-08T13:13:33;99975.31;;;20.94;81.86
73151;BME280;61354;50.758;6.106;2023-10-08T13:16:00;99974.06;;;21.02;82.02
73151;BME280;61354;50.758;6.106;2023-10-08T13:18:29;99968.84;;;21.04;80.54
73151;BME280;61354;50.758;6.106;2023-10-08T13:20:55;99969.63;;;21.08;79.28
73151;BME280;61354;50.758;6.106;2023-10-08T13:23:21;99963.97;;;21.16;79.51
73151;BME280;61354;50.758;6.106;2023-10-08T13:25:52;99967.22;;;21.03;78.88
73151;BME280;61354;50.758;6.106;2023-10-08T13:28:21;99961.13;;;21.19;79.63
73151;BME280;61354;50.758;6.106;2023-10-08T13:30:48;99959.47;;;21.22;80.44
73151;BME280;61354;50.758;6.106;2023-10-08T13:33:19;99957.88;;;21.21;80.05